コルカタ の空港の天気 - METARとTAF

ネータージー・スバース・チャンドラ・ボース国際空港 ( VECC / CCU ) - インド コルカタ
飛行場実況気象(Metar)
観測時間10/18 06:00 IST (10/18 00:30 UTC)
風向・風速静穏 0m/s
視程1600m
天気現象もや
少しの雲 雲底高度 610m
気温23℃
湿度94%
気圧1010hPa
METARVECC 180030Z 00000KT 1600 BR FEW020 23/22 Q1010 NOSIG
過去の天気等 Google飛行場航空写真 Wunderground天気予報

過去48時間のMETAR

飛行場予報(TAF)
発表時間: 10/18 04:30 IST (10/17 23:00 UTC)
予報対象時間: 18日5時 IST ~ 19日11時 IST
風向・風速静穏
視程2200m
天気現象もや
少しの雲 雲底高度 610m
18日7時 IST ~ 18日9時 IST に徐々に
風向・風速西南西 3m/s
視程3500m
天気現象煙霧
19日0時 IST ~ 19日2時 IST に徐々に
風向・風速静穏
視程2200m
天気現象もや
19日7時 IST ~ 19日9時 IST に徐々に
風向・風速西 3m/s
視程3200m
天気現象煙霧
TAF VECC 172300Z 1800/1906 00000KT 2200 BR FEW020
BECMG 1802/1804 25005KT 3500 HZ
BECMG 1819/1821 00000KT 2200 BR
BECMG 1902/1904 27005KT 3200 HZ